createdAt,value
2023-03-27T01:21:02.571Z,96651.53
2023-03-27T01:23:59.488Z,96650.63
2023-03-27T01:26:35.634Z,96662.88
2023-03-27T01:29:06.425Z,96671.03
2023-03-27T01:31:52.290Z,96665.94
2023-03-27T01:34:25.564Z,96667.13
2023-03-27T01:36:58.513Z,96676.69
2023-03-27T01:39:37.475Z,96671.81
2023-03-27T01:42:05.451Z,96669.44
2023-03-27T01:44:43.520Z,96687.47
2023-03-27T01:47:24.676Z,96693.25
2023-03-27T01:49:56.519Z,96686.25
2023-03-27T01:52:27.743Z,96692.66
2023-03-27T01:54:58.422Z,96694.72
2023-03-27T01:57:27.550Z,96699.28
2023-03-27T02:00:18.112Z,96706.03
2023-03-27T02:02:51.714Z,96709.88
2023-03-27T02:05:22.222Z,96697.50
2023-03-27T02:07:51.862Z,96711.09
2023-03-27T02:10:20.622Z,96712.13
2023-03-27T02:12:49.669Z,96713.38
2023-03-27T02:15:23.949Z,96729.66
2023-03-27T02:18:10.612Z,96730.44
2023-03-27T02:20:38.175Z,96735.09
2023-03-27T02:23:05.172Z,96751.16
2023-03-27T02:25:32.846Z,96753.31
2023-03-27T02:27:59.607Z,96750.75
2023-03-27T02:30:39.323Z,96753.84
2023-03-27T02:33:09.308Z,96752.53
2023-03-27T02:35:41.330Z,96752.59
2023-03-27T02:38:08.724Z,96746.94
2023-03-27T02:40:57.022Z,96754.50
2023-03-27T02:43:32.199Z,96757.56
2023-03-27T02:46:03.775Z,96760.72
2023-03-27T02:48:35.085Z,96766.50
2023-03-27T02:51:07.663Z,96764.91
2023-03-27T02:54:00.999Z,96770.22
2023-03-27T02:56:28.581Z,96786.13
2023-03-27T02:58:58.113Z,96787.09
2023-03-27T03:01:27.400Z,96797.31
2023-03-27T03:04:08.373Z,96796.88
2023-03-27T03:09:19.621Z,96804.50
2023-03-27T03:19:45.979Z,96814.59
2023-03-27T03:22:13.601Z,96816.84
2023-03-27T03:24:42.828Z,96822.72
2023-03-27T03:27:10.145Z,96829.66
2023-03-27T03:29:38.917Z,96834.38
2023-03-27T03:32:06.778Z,96841.19
2023-03-27T03:34:36.966Z,96838.72
2023-03-27T03:37:05.244Z,96842.25
2023-03-27T03:39:33.064Z,96840.81
2023-03-27T03:42:00.230Z,96845.19
2023-03-27T03:44:27.376Z,96849.41
2023-03-27T03:46:57.079Z,96848.25
2023-03-27T03:49:25.859Z,96856.56
2023-03-27T03:52:04.346Z,96860.44
2023-03-27T03:54:32.607Z,96857.25
2023-03-27T03:57:00.360Z,96866.19
2023-03-27T03:59:29.671Z,96859.00
2023-03-27T04:01:57.944Z,96862.75
2023-03-27T04:04:25.699Z,96867.81
2023-03-27T04:09:34.431Z,96884.25
2023-03-27T04:39:12.519Z,96927.91
2023-03-27T05:10:06.950Z,96964.31
2023-03-27T05:50:43.771Z,97012.50
2023-03-27T12:55:04.394Z,97367.66
2023-03-27T12:57:31.389Z,97371.28
2023-03-27T13:29:25.792Z,97378.31
2023-03-27T13:35:23.038Z,97355.31
2023-03-27T13:37:50.137Z,97352.94
2023-03-27T13:40:36.809Z,97360.66
2023-03-27T13:43:17.728Z,97359.59
2023-03-27T13:45:48.723Z,97352.25
2023-03-27T13:48:45.801Z,97356.97
2023-03-27T13:51:20.217Z,97357.09
2023-03-27T13:53:54.208Z,97359.47
2023-03-27T13:56:26.806Z,97362.38
2023-03-27T13:59:11.227Z,97369.63
2023-03-27T14:01:41.102Z,97385.38
2023-03-27T14:04:14.574Z,97405.63
2023-03-27T14:07:01.099Z,97425.50
2023-03-27T14:09:36.691Z,97428.69
2023-03-27T14:12:22.627Z,97419.63
2023-03-27T14:14:49.283Z,97433.81
2023-03-27T14:17:35.041Z,97422.38
2023-03-27T14:20:01.604Z,97423.84
2023-03-27T14:22:31.194Z,97430.75
2023-03-27T14:25:00.289Z,97428.25
2023-03-27T14:31:07.582Z,97429.50
2023-03-27T14:33:34.693Z,97446.59
2023-03-27T14:36:04.232Z,97440.69
2023-03-27T14:41:59.962Z,97448.84
2023-03-27T14:44:54.179Z,97440.84
2023-03-27T14:47:21.131Z,97447.09
2023-03-27T14:49:49.370Z,97444.78
2023-03-27T14:52:22.214Z,97429.72
2023-03-27T14:58:18.823Z,97433.94
2023-03-27T15:00:47.874Z,97432.91
2023-03-27T15:03:20.011Z,97429.44
2023-03-27T15:05:58.952Z,97440.53
2023-03-27T15:08:26.271Z,97443.44
2023-03-27T15:13:38.422Z,97442.78
2023-03-27T15:16:06.972Z,97437.97
2023-03-27T15:18:45.000Z,97444.16
2023-03-27T15:21:17.137Z,97433.31
2023-03-27T15:23:45.866Z,97437.03
2023-03-27T15:29:42.887Z,97443.50
2023-03-27T15:32:14.969Z,97443.09
2023-03-27T15:34:49.592Z,97436.41
2023-03-27T15:37:18.730Z,97451.47
2023-03-27T15:40:03.202Z,97448.84
2023-03-27T15:42:36.599Z,97460.97
2023-03-27T15:45:45.044Z,97460.75
2023-03-27T15:48:39.526Z,97465.78
2023-03-27T15:51:09.855Z,97466.16
2023-03-27T15:53:36.988Z,97473.59
2023-03-27T15:56:04.927Z,97484.75
2023-03-27T15:58:49.377Z,97502.03
2023-03-27T16:01:23.878Z,97506.22
2023-03-27T16:03:53.234Z,97503.50
2023-03-27T16:06:31.178Z,97497.44
2023-03-27T16:17:22.143Z,97502.66
2023-03-27T16:19:54.395Z,97512.44
2023-03-27T16:22:25.608Z,97518.81
2023-03-27T16:24:55.082Z,97528.25
2023-03-27T16:27:23.330Z,97539.34
2023-03-27T16:35:21.037Z,97534.91
2023-03-27T16:37:49.754Z,97537.66
2023-03-27T16:40:16.596Z,97529.69
2023-03-27T16:45:25.454Z,97549.28
2023-03-27T16:48:00.599Z,97552.69
2023-03-27T16:50:30.034Z,97551.16
2023-03-27T16:52:57.517Z,97553.56
2023-03-27T16:55:27.103Z,97550.84
2023-03-27T16:57:55.241Z,97547.28
2023-03-27T17:00:22.424Z,97547.72
2023-03-27T17:02:49.569Z,97542.97
2023-03-27T17:05:17.205Z,97553.63
2023-03-27T17:07:47.462Z,97552.44
2023-03-27T17:10:17.443Z,97560.25
2023-03-27T17:12:44.751Z,97556.50
2023-03-27T17:15:12.446Z,97549.44
2023-03-27T17:17:39.384Z,97554.16
2023-03-27T17:20:08.582Z,97564.25
2023-03-27T17:22:35.933Z,97565.28
2023-03-27T17:25:05.163Z,97565.38
2023-03-27T17:27:32.618Z,97575.66
2023-03-27T17:29:59.492Z,97580.47
2023-03-27T17:32:27.590Z,97582.00
2023-03-27T17:34:54.554Z,97590.00
2023-03-27T17:37:21.763Z,97589.97
2023-03-27T17:39:48.791Z,97592.31
2023-03-27T17:42:16.123Z,97596.28
2023-03-27T17:44:45.709Z,97595.78
2023-03-27T17:47:13.492Z,97607.56
2023-03-27T17:49:45.087Z,97604.69
2023-03-27T17:52:14.718Z,97611.97
2023-03-27T17:54:41.686Z,97605.13
2023-03-27T17:57:08.510Z,97615.50
2023-03-27T17:59:38.270Z,97617.81
2023-03-27T18:02:05.865Z,97622.00
2023-03-27T18:04:33.544Z,97622.34
2023-03-27T18:07:00.880Z,97623.47
2023-03-27T18:09:28.498Z,97630.75
2023-03-27T18:11:55.351Z,97631.78
2023-03-27T18:14:22.169Z,97628.81
2023-03-27T18:16:49.061Z,97635.78
2023-03-27T18:19:15.984Z,97635.13
2023-03-27T18:21:42.948Z,97640.75
2023-03-27T18:24:09.636Z,97643.22
2023-03-27T18:26:36.991Z,97643.13
2023-03-27T18:29:05.120Z,97649.19
2023-03-27T18:31:32.387Z,97653.13
2023-03-27T18:33:59.318Z,97653.53
2023-03-27T18:36:26.382Z,97655.63
2023-03-27T18:38:53.531Z,97659.28
2023-03-27T18:41:20.739Z,97652.84
2023-03-27T18:43:47.716Z,97657.97
2023-03-27T18:46:17.621Z,97664.59
2023-03-27T18:48:45.024Z,97672.88
2023-03-27T18:51:11.638Z,97674.75
2023-03-27T18:53:38.367Z,97673.09
2023-03-27T18:56:05.974Z,97687.09
2023-03-27T18:58:32.733Z,97681.19
2023-03-27T19:01:00.239Z,97685.53
2023-03-27T19:03:30.908Z,97688.03
2023-03-27T19:06:00.323Z,97688.22
2023-03-27T19:08:27.126Z,97681.47
2023-03-27T19:10:58.087Z,97687.16
2023-03-27T19:13:25.657Z,97689.84
2023-03-27T19:15:52.587Z,97693.31
2023-03-27T19:18:19.632Z,97688.31
2023-03-27T19:20:46.920Z,97693.06
2023-03-27T19:23:14.420Z,97685.56
2023-03-27T19:25:43.620Z,97688.88
2023-03-27T19:28:10.675Z,97692.00
2023-03-27T19:30:37.389Z,97699.19
2023-03-27T19:33:04.321Z,97700.13
2023-03-27T19:35:31.644Z,97699.13
2023-03-27T19:37:58.636Z,97695.97
2023-03-27T19:40:25.829Z,97701.06
2023-03-27T19:42:52.776Z,97698.69
2023-03-27T19:45:19.637Z,97703.38
2023-03-27T19:47:47.165Z,97701.44
2023-03-27T19:50:15.468Z,97709.81
2023-03-27T19:52:49.443Z,97709.41
2023-03-27T19:55:26.310Z,97711.59
2023-03-27T19:57:56.557Z,97709.59
2023-03-27T20:00:25.925Z,97714.06
2023-03-27T20:02:53.270Z,97710.75
2023-03-27T20:05:20.570Z,97718.72
2023-03-27T20:07:47.566Z,97723.69
2023-03-27T20:10:16.403Z,97716.66
2023-03-27T20:12:45.683Z,97727.22
2023-03-27T20:15:12.850Z,97717.06
2023-03-27T20:17:42.397Z,97735.31
2023-03-27T20:20:11.040Z,97728.47
2023-03-27T20:25:19.452Z,97734.66
2023-03-27T20:38:40.056Z,97740.97
2023-03-27T20:41:09.669Z,97745.63
2023-03-27T20:46:33.458Z,97749.78
2023-03-27T20:49:05.376Z,97743.97
2023-03-27T20:54:17.485Z,97749.75
2023-03-27T20:56:49.726Z,97748.28
2023-03-27T20:59:27.410Z,97747.56
2023-03-27T21:02:02.089Z,97750.75
2023-03-27T21:23:39.326Z,97752.75
2023-03-27T21:26:16.239Z,97758.09
2023-03-27T21:34:17.610Z,97764.50
2023-03-27T21:36:53.061Z,97759.31
2023-03-27T21:39:20.829Z,97766.25
2023-03-27T21:47:16.443Z,97765.63
2023-03-27T22:03:37.183Z,97765.34
2023-03-27T22:09:05.429Z,97781.09
2023-03-27T22:19:45.964Z,97786.56
2023-03-27T22:22:15.557Z,97785.81
2023-03-27T22:24:46.102Z,97791.09
2023-03-27T22:27:13.273Z,97796.06
2023-03-27T22:29:44.056Z,97805.69
2023-03-27T22:37:36.805Z,97822.03
2023-03-27T22:40:04.197Z,97826.38
2023-03-27T22:42:31.389Z,97818.72
2023-03-27T22:44:58.507Z,97819.66
2023-03-27T22:52:42.931Z,97819.81
2023-03-27T23:00:32.944Z,97826.38
2023-03-27T23:02:59.959Z,97825.91
2023-03-27T23:05:26.822Z,97828.66
2023-03-27T23:07:53.748Z,97825.25
2023-03-27T23:13:01.588Z,97837.25
2023-03-27T23:15:29.930Z,97837.25
2023-03-27T23:20:45.806Z,97846.03
2023-03-27T23:26:13.844Z,97849.06
2023-03-27T23:31:25.561Z,97850.63
2023-03-27T23:33:52.645Z,97854.06
2023-03-27T23:36:21.475Z,97850.63
2023-03-27T23:38:48.299Z,97852.72
2023-03-27T23:41:15.705Z,97860.31
2023-03-27T23:43:45.791Z,97867.44
2023-03-27T23:46:13.370Z,97861.81
2023-03-27T23:48:41.146Z,97860.97
2023-03-27T23:51:08.543Z,97861.16
2023-03-27T23:53:38.654Z,97868.00
2023-03-27T23:56:10.466Z,97868.97
